sensor_id;sensor_type;location;lat;lon;timestamp;P1;durP1;ratioP1;P2;durP2;ratioP2
68792;SDS011;55778;54.346;10.210;2023-07-13T00:01:18;4.93;;;2.15;;
68792;SDS011;55778;54.346;10.210;2023-07-13T00:03:44;6.38;;;2.45;;
68792;SDS011;55778;54.346;10.210;2023-07-13T00:06:09;6.72;;;2.70;;
68792;SDS011;55778;54.346;10.210;2023-07-13T00:08:35;5.32;;;2.10;;
68792;SDS011;55778;54.346;10.210;2023-07-13T00:11:01;7.25;;;2.00;;
68792;SDS011;55778;54.346;10.210;2023-07-13T00:13:27;3.60;;;2.03;;
68792;SDS011;55778;54.346;10.210;2023-07-13T00:15:54;5.63;;;2.38;;
68792;SDS011;55778;54.346;10.210;2023-07-13T00:18:21;9.15;;;2.30;;
68792;SDS011;55778;54.346;10.210;2023-07-13T00:20:46;4.97;;;2.10;;
68792;SDS011;55778;54.346;10.210;2023-07-13T00:23:12;8.43;;;2.22;;
68792;SDS011;55778;54.346;10.210;2023-07-13T00:25:37;9.35;;;2.50;;
68792;SDS011;55778;54.346;10.210;2023-07-13T00:28:03;6.13;;;2.25;;
68792;SDS011;55778;54.346;10.210;2023-07-13T00:30:28;4.88;;;2.17;;
68792;SDS011;55778;54.346;10.210;2023-07-13T00:32:54;4.38;;;2.20;;
68792;SDS011;55778;54.346;10.210;2023-07-13T00:35:19;4.55;;;2.22;;
68792;SDS011;55778;54.346;10.210;2023-07-13T00:37:45;5.68;;;2.10;;
68792;SDS011;55778;54.346;10.210;2023-07-13T00:40:11;7.63;;;2.92;;
68792;SDS011;55778;54.346;10.210;2023-07-13T00:42:38;7.90;;;2.33;;
68792;SDS011;55778;54.346;10.210;2023-07-13T00:47:32;7.30;;;2.13;;
68792;SDS011;55778;54.346;10.210;2023-07-13T00:49:58;5.93;;;2.15;;
68792;SDS011;55778;54.346;10.210;2023-07-13T00:52:24;4.57;;;2.20;;
68792;SDS011;55778;54.346;10.210;2023-07-13T00:54:50;5.40;;;2.50;;
68792;SDS011;55778;54.346;10.210;2023-07-13T00:57:16;4.45;;;2.20;;
68792;SDS011;55778;54.346;10.210;2023-07-13T00:59:47;5.43;;;2.08;;
68792;SDS011;55778;54.346;10.210;2023-07-13T01:04:41;6.35;;;2.22;;
68792;SDS011;55778;54.346;10.210;2023-07-13T01:07:09;4.88;;;2.20;;
68792;SDS011;55778;54.346;10.210;2023-07-13T01:09:36;4.25;;;2.30;;
68792;SDS011;55778;54.346;10.210;2023-07-13T01:12:02;6.45;;;2.30;;
68792;SDS011;55778;54.346;10.210;2023-07-13T01:14:28;6.50;;;2.15;;
68792;SDS011;55778;54.346;10.210;2023-07-13T01:16:53;4.45;;;2.30;;
68792;SDS011;55778;54.346;10.210;2023-07-13T01:21:55;7.80;;;2.47;;
68792;SDS011;55778;54.346;10.210;2023-07-13T01:24:20;10.82;;;2.65;;
68792;SDS011;55778;54.346;10.210;2023-07-13T01:26:46;7.50;;;2.85;;
68792;SDS011;55778;54.346;10.210;2023-07-13T01:29:11;6.68;;;2.60;;
68792;SDS011;55778;54.346;10.210;2023-07-13T01:31:36;10.15;;;2.60;;
68792;SDS011;55778;54.346;10.210;2023-07-13T01:34:02;8.27;;;2.80;;
68792;SDS011;55778;54.346;10.210;2023-07-13T01:36:27;7.78;;;3.17;;
68792;SDS011;55778;54.346;10.210;2023-07-13T01:38:53;6.07;;;2.60;;
68792;SDS011;55778;54.346;10.210;2023-07-13T01:41:18;5.28;;;2.95;;
68792;SDS011;55778;54.346;10.210;2023-07-13T01:43:43;4.93;;;2.47;;
68792;SDS011;55778;54.346;10.210;2023-07-13T01:46:09;6.90;;;2.85;;
68792;SDS011;55778;54.346;10.210;2023-07-13T01:48:34;8.13;;;2.70;;
68792;SDS011;55778;54.346;10.210;2023-07-13T01:50:59;6.90;;;3.80;;
68792;SDS011;55778;54.346;10.210;2023-07-13T01:53:25;9.15;;;3.53;;
68792;SDS011;55778;54.346;10.210;2023-07-13T01:55:50;5.75;;;2.60;;
68792;SDS011;55778;54.346;10.210;2023-07-13T01:58:16;5.18;;;2.65;;
68792;SDS011;55778;54.346;10.210;2023-07-13T02:00:41;7.50;;;3.67;;
68792;SDS011;55778;54.346;10.210;2023-07-13T02:03:06;6.10;;;3.90;;
68792;SDS011;55778;54.346;10.210;2023-07-13T02:05:32;6.07;;;2.17;;
68792;SDS011;55778;54.346;10.210;2023-07-13T02:07:57;8.48;;;2.67;;
68792;SDS011;55778;54.346;10.210;2023-07-13T02:10:22;6.00;;;2.53;;
68792;SDS011;55778;54.346;10.210;2023-07-13T02:12:48;5.50;;;2.30;;
68792;SDS011;55778;54.346;10.210;2023-07-13T02:15:15;3.95;;;2.10;;
68792;SDS011;55778;54.346;10.210;2023-07-13T02:17:41;6.60;;;2.40;;
68792;SDS011;55778;54.346;10.210;2023-07-13T02:20:06;6.68;;;2.53;;
68792;SDS011;55778;54.346;10.210;2023-07-13T02:22:33;6.35;;;2.50;;
68792;SDS011;55778;54.346;10.210;2023-07-13T02:24:58;10.48;;;4.35;;
68792;SDS011;55778;54.346;10.210;2023-07-13T02:27:23;5.57;;;3.20;;
68792;SDS011;55778;54.346;10.210;2023-07-13T02:29:49;4.63;;;2.28;;
68792;SDS011;55778;54.346;10.210;2023-07-13T02:32:16;3.95;;;2.17;;
68792;SDS011;55778;54.346;10.210;2023-07-13T02:34:42;5.50;;;2.08;;
68792;SDS011;55778;54.346;10.210;2023-07-13T02:37:07;9.13;;;2.55;;
68792;SDS011;55778;54.346;10.210;2023-07-13T02:39:33;6.22;;;2.05;;
68792;SDS011;55778;54.346;10.210;2023-07-13T02:41:59;5.35;;;2.28;;
68792;SDS011;55778;54.346;10.210;2023-07-13T02:44:25;3.72;;;1.83;;
68792;SDS011;55778;54.346;10.210;2023-07-13T02:46:51;17.05;;;7.63;;
68792;SDS011;55778;54.346;10.210;2023-07-13T02:49:16;5.75;;;2.42;;
68792;SDS011;55778;54.346;10.210;2023-07-13T02:51:42;4.82;;;2.15;;
68792;SDS011;55778;54.346;10.210;2023-07-13T02:54:08;6.28;;;2.08;;
68792;SDS011;55778;54.346;10.210;2023-07-13T02:56:35;6.65;;;1.88;;
68792;SDS011;55778;54.346;10.210;2023-07-13T02:59:00;4.80;;;1.90;;
68792;SDS011;55778;54.346;10.210;2023-07-13T03:01:26;3.45;;;2.00;;
68792;SDS011;55778;54.346;10.210;2023-07-13T03:03:51;5.95;;;2.20;;
68792;SDS011;55778;54.346;10.210;2023-07-13T03:06:17;9.30;;;5.00;;
68792;SDS011;55778;54.346;10.210;2023-07-13T03:08:44;7.85;;;3.45;;
68792;SDS011;55778;54.346;10.210;2023-07-13T03:11:11;4.53;;;2.53;;
68792;SDS011;55778;54.346;10.210;2023-07-13T03:13:39;7.63;;;2.40;;
68792;SDS011;55778;54.346;10.210;2023-07-13T03:16:05;5.93;;;3.13;;
68792;SDS011;55778;54.346;10.210;2023-07-13T03:18:31;6.50;;;3.42;;
68792;SDS011;55778;54.346;10.210;2023-07-13T03:20:57;6.20;;;3.40;;
68792;SDS011;55778;54.346;10.210;2023-07-13T03:23:23;6.53;;;3.17;;
68792;SDS011;55778;54.346;10.210;2023-07-13T03:25:49;7.97;;;2.90;;
68792;SDS011;55778;54.346;10.210;2023-07-13T03:28:15;7.47;;;3.35;;
68792;SDS011;55778;54.346;10.210;2023-07-13T03:30:41;6.93;;;3.20;;
68792;SDS011;55778;54.346;10.210;2023-07-13T03:33:07;9.18;;;3.10;;
68792;SDS011;55778;54.346;10.210;2023-07-13T03:35:33;6.72;;;3.33;;
68792;SDS011;55778;54.346;10.210;2023-07-13T03:37:59;4.88;;;3.00;;
68792;SDS011;55778;54.346;10.210;2023-07-13T03:40:25;6.30;;;3.90;;
68792;SDS011;55778;54.346;10.210;2023-07-13T03:42:52;8.45;;;3.47;;
68792;SDS011;55778;54.346;10.210;2023-07-13T03:45:18;8.40;;;3.97;;
68792;SDS011;55778;54.346;10.210;2023-07-13T03:47:44;8.23;;;3.40;;
68792;SDS011;55778;54.346;10.210;2023-07-13T03:50:09;5.35;;;3.35;;
68792;SDS011;55778;54.346;10.210;2023-07-13T03:52:35;9.05;;;4.38;;
68792;SDS011;55778;54.346;10.210;2023-07-13T03:55:01;7.38;;;3.88;;
68792;SDS011;55778;54.346;10.210;2023-07-13T03:57:26;7.32;;;3.50;;
68792;SDS011;55778;54.346;10.210;2023-07-13T03:59:51;6.47;;;3.42;;
68792;SDS011;55778;54.346;10.210;2023-07-13T04:02:17;6.65;;;3.88;;
68792;SDS011;55778;54.346;10.210;2023-07-13T04:04:43;9.63;;;4.55;;
68792;SDS011;55778;54.346;10.210;2023-07-13T04:07:08;7.95;;;4.28;;
68792;SDS011;55778;54.346;10.210;2023-07-13T04:09:34;6.75;;;3.83;;
68792;SDS011;55778;54.346;10.210;2023-07-13T04:12:00;9.52;;;5.72;;
68792;SDS011;55778;54.346;10.210;2023-07-13T04:14:25;9.18;;;3.70;;
68792;SDS011;55778;54.346;10.210;2023-07-13T04:16:51;7.28;;;4.03;;
68792;SDS011;55778;54.346;10.210;2023-07-13T04:19:16;7.20;;;3.75;;
68792;SDS011;55778;54.346;10.210;2023-07-13T04:21:42;8.10;;;4.03;;
68792;SDS011;55778;54.346;10.210;2023-07-13T04:24:08;7.28;;;3.50;;
68792;SDS011;55778;54.346;10.210;2023-07-13T04:26:34;7.78;;;3.83;;
68792;SDS011;55778;54.346;10.210;2023-07-13T04:29:01;6.78;;;3.92;;
68792;SDS011;55778;54.346;10.210;2023-07-13T04:31:29;9.15;;;3.65;;
68792;SDS011;55778;54.346;10.210;2023-07-13T04:33:54;6.03;;;3.25;;
68792;SDS011;55778;54.346;10.210;2023-07-13T04:36:20;6.45;;;3.40;;
68792;SDS011;55778;54.346;10.210;2023-07-13T04:38:45;6.47;;;3.72;;
68792;SDS011;55778;54.346;10.210;2023-07-13T04:41:11;5.93;;;3.60;;
68792;SDS011;55778;54.346;10.210;2023-07-13T04:43:37;8.32;;;3.10;;
68792;SDS011;55778;54.346;10.210;2023-07-13T04:46:03;7.60;;;3.42;;
68792;SDS011;55778;54.346;10.210;2023-07-13T04:48:33;7.70;;;3.30;;
68792;SDS011;55778;54.346;10.210;2023-07-13T04:50:59;7.05;;;3.80;;
68792;SDS011;55778;54.346;10.210;2023-07-13T04:53:25;7.45;;;3.03;;
68792;SDS011;55778;54.346;10.210;2023-07-13T04:55:51;6.43;;;3.17;;
68792;SDS011;55778;54.346;10.210;2023-07-13T04:58:17;5.80;;;3.33;;
68792;SDS011;55778;54.346;10.210;2023-07-13T05:00:43;7.35;;;3.55;;
68792;SDS011;55778;54.346;10.210;2023-07-13T05:03:09;6.22;;;3.28;;
68792;SDS011;55778;54.346;10.210;2023-07-13T05:05:34;7.97;;;3.13;;
68792;SDS011;55778;54.346;10.210;2023-07-13T05:08:00;7.88;;;2.90;;
68792;SDS011;55778;54.346;10.210;2023-07-13T05:10:25;8.77;;;2.92;;
68792;SDS011;55778;54.346;10.210;2023-07-13T05:12:50;6.85;;;3.20;;
68792;SDS011;55778;54.346;10.210;2023-07-13T05:15:16;6.63;;;2.78;;
68792;SDS011;55778;54.346;10.210;2023-07-13T05:17:46;6.25;;;2.85;;
68792;SDS011;55778;54.346;10.210;2023-07-13T05:20:12;7.88;;;2.95;;
68792;SDS011;55778;54.346;10.210;2023-07-13T05:22:37;8.43;;;2.88;;
68792;SDS011;55778;54.346;10.210;2023-07-13T05:25:04;5.03;;;2.90;;
68792;SDS011;55778;54.346;10.210;2023-07-13T05:27:30;5.88;;;2.83;;
68792;SDS011;55778;54.346;10.210;2023-07-13T05:29:56;5.97;;;3.25;;
68792;SDS011;55778;54.346;10.210;2023-07-13T05:32:21;8.18;;;3.03;;
68792;SDS011;55778;54.346;10.210;2023-07-13T05:34:47;11.23;;;3.05;;
68792;SDS011;55778;54.346;10.210;2023-07-13T05:37:12;5.28;;;2.88;;
68792;SDS011;55778;54.346;10.210;2023-07-13T05:39:37;9.95;;;2.90;;
68792;SDS011;55778;54.346;10.210;2023-07-13T05:42:03;6.85;;;3.22;;
68792;SDS011;55778;54.346;10.210;2023-07-13T05:44:29;6.38;;;2.95;;
68792;SDS011;55778;54.346;10.210;2023-07-13T05:46:54;7.88;;;3.00;;
68792;SDS011;55778;54.346;10.210;2023-07-13T05:49:21;6.78;;;3.00;;
68792;SDS011;55778;54.346;10.210;2023-07-13T05:51:47;8.43;;;3.20;;
68792;SDS011;55778;54.346;10.210;2023-07-13T05:54:13;7.50;;;2.63;;
68792;SDS011;55778;54.346;10.210;2023-07-13T05:56:38;8.10;;;3.45;;
68792;SDS011;55778;54.346;10.210;2023-07-13T05:59:04;6.32;;;2.80;;
68792;SDS011;55778;54.346;10.210;2023-07-13T06:01:29;6.82;;;2.65;;
68792;SDS011;55778;54.346;10.210;2023-07-13T06:03:55;7.07;;;2.88;;
68792;SDS011;55778;54.346;10.210;2023-07-13T06:06:21;8.48;;;3.35;;
68792;SDS011;55778;54.346;10.210;2023-07-13T06:08:46;9.82;;;3.42;;
68792;SDS011;55778;54.346;10.210;2023-07-13T06:11:14;8.07;;;3.15;;
68792;SDS011;55778;54.346;10.210;2023-07-13T06:13:41;9.50;;;3.05;;
68792;SDS011;55778;54.346;10.210;2023-07-13T06:16:06;7.47;;;2.90;;
68792;SDS011;55778;54.346;10.210;2023-07-13T06:18:33;8.57;;;3.05;;
68792;SDS011;55778;54.346;10.210;2023-07-13T06:21:00;5.15;;;2.90;;
68792;SDS011;55778;54.346;10.210;2023-07-13T06:23:25;7.70;;;2.80;;
68792;SDS011;55778;54.346;10.210;2023-07-13T06:25:51;9.27;;;3.17;;
68792;SDS011;55778;54.346;10.210;2023-07-13T06:28:16;8.52;;;3.38;;
68792;SDS011;55778;54.346;10.210;2023-07-13T06:30:42;6.97;;;3.33;;
68792;SDS011;55778;54.346;10.210;2023-07-13T06:33:07;11.43;;;3.58;;
68792;SDS011;55778;54.346;10.210;2023-07-13T06:35:33;8.15;;;3.40;;
68792;SDS011;55778;54.346;10.210;2023-07-13T06:37:58;8.88;;;3.35;;
68792;SDS011;55778;54.346;10.210;2023-07-13T06:40:24;7.82;;;3.22;;
68792;SDS011;55778;54.346;10.210;2023-07-13T06:42:49;8.48;;;3.30;;
68792;SDS011;55778;54.346;10.210;2023-07-13T06:45:15;8.52;;;3.72;;
68792;SDS011;55778;54.346;10.210;2023-07-13T06:47:40;8.80;;;3.80;;
68792;SDS011;55778;54.346;10.210;2023-07-13T06:50:06;7.70;;;2.95;;
68792;SDS011;55778;54.346;10.210;2023-07-13T06:52:32;9.98;;;3.80;;
68792;SDS011;55778;54.346;10.210;2023-07-13T06:54:57;7.53;;;3.22;;
68792;SDS011;55778;54.346;10.210;2023-07-13T06:57:23;7.30;;;3.22;;
68792;SDS011;55778;54.346;10.210;2023-07-13T06:59:48;7.15;;;3.65;;
68792;SDS011;55778;54.346;10.210;2023-07-13T07:02:13;9.13;;;3.53;;
68792;SDS011;55778;54.346;10.210;2023-07-13T07:04:39;7.15;;;2.90;;
68792;SDS011;55778;54.346;10.210;2023-07-13T07:07:04;7.80;;;2.90;;
68792;SDS011;55778;54.346;10.210;2023-07-13T07:09:29;7.88;;;2.90;;
68792;SDS011;55778;54.346;10.210;2023-07-13T07:11:56;10.98;;;2.70;;
68792;SDS011;55778;54.346;10.210;2023-07-13T07:14:22;8.25;;;3.15;;
68792;SDS011;55778;54.346;10.210;2023-07-13T07:16:47;11.73;;;3.25;;
68792;SDS011;55778;54.346;10.210;2023-07-13T07:19:12;6.90;;;2.60;;
68792;SDS011;55778;54.346;10.210;2023-07-13T07:21:38;6.40;;;2.60;;
68792;SDS011;55778;54.346;10.210;2023-07-13T07:24:04;9.70;;;2.80;;
68792;SDS011;55778;54.346;10.210;2023-07-13T07:26:30;9.00;;;2.75;;
68792;SDS011;55778;54.346;10.210;2023-07-13T07:28:55;7.90;;;2.78;;
68792;SDS011;55778;54.346;10.210;2023-07-13T07:31:20;11.07;;;2.90;;
68792;SDS011;55778;54.346;10.210;2023-07-13T07:33:46;7.80;;;2.60;;
68792;SDS011;55778;54.346;10.210;2023-07-13T07:36:11;8.70;;;2.45;;
68792;SDS011;55778;54.346;10.210;2023-07-13T07:38:37;6.68;;;2.42;;
68792;SDS011;55778;54.346;10.210;2023-07-13T07:41:05;6.97;;;2.40;;
68792;SDS011;55778;54.346;10.210;2023-07-13T07:43:31;6.13;;;2.03;;
68792;SDS011;55778;54.346;10.210;2023-07-13T07:45:57;8.32;;;2.10;;
68792;SDS011;55778;54.346;10.210;2023-07-13T07:48:22;6.93;;;2.13;;
68792;SDS011;55778;54.346;10.210;2023-07-13T07:50:48;5.20;;;2.10;;
68792;SDS011;55778;54.346;10.210;2023-07-13T07:53:13;5.60;;;2.05;;
68792;SDS011;55778;54.346;10.210;2023-07-13T07:55:38;5.25;;;2.13;;
68792;SDS011;55778;54.346;10.210;2023-07-13T07:58:04;8.10;;;2.10;;
68792;SDS011;55778;54.346;10.210;2023-07-13T08:00:31;7.70;;;2.17;;
68792;SDS011;55778;54.346;10.210;2023-07-13T08:02:57;6.68;;;2.15;;
68792;SDS011;55778;54.346;10.210;2023-07-13T08:05:23;5.75;;;1.85;;
68792;SDS011;55778;54.346;10.210;2023-07-13T08:07:49;6.32;;;1.90;;
68792;SDS011;55778;54.346;10.210;2023-07-13T08:10:14;5.18;;;1.98;;
68792;SDS011;55778;54.346;10.210;2023-07-13T08:12:40;3.60;;;1.60;;
68792;SDS011;55778;54.346;10.210;2023-07-13T08:15:06;5.95;;;2.17;;
68792;SDS011;55778;54.346;10.210;2023-07-13T08:17:35;4.72;;;1.45;;
68792;SDS011;55778;54.346;10.210;2023-07-13T08:20:01;4.03;;;1.65;;
68792;SDS011;55778;54.346;10.210;2023-07-13T08:22:27;5.03;;;1.67;;
68792;SDS011;55778;54.346;10.210;2023-07-13T08:24:52;5.72;;;1.70;;
68792;SDS011;55778;54.346;10.210;2023-07-13T08:27:24;7.53;;;2.33;;
68792;SDS011;55778;54.346;10.210;2023-07-13T08:29:50;9.30;;;2.38;;
68792;SDS011;55778;54.346;10.210;2023-07-13T08:32:17;8.23;;;2.30;;
68792;SDS011;55778;54.346;10.210;2023-07-13T08:34:43;11.70;;;3.22;;
68792;SDS011;55778;54.346;10.210;2023-07-13T08:37:08;7.72;;;2.85;;
68792;SDS011;55778;54.346;10.210;2023-07-13T08:39:34;6.80;;;2.63;;
68792;SDS011;55778;54.346;10.210;2023-07-13T08:42:45;10.63;;;2.75;;
68792;SDS011;55778;54.346;10.210;2023-07-13T08:47:19;8.93;;;3.10;;
68792;SDS011;55778;54.346;10.210;2023-07-13T08:49:47;14.50;;;3.60;;
68792;SDS011;55778;54.346;10.210;2023-07-13T08:54:56;8.48;;;3.28;;
68792;SDS011;55778;54.346;10.210;2023-07-13T08:57:28;11.23;;;3.00;;
68792;SDS011;55778;54.346;10.210;2023-07-13T08:59:58;10.20;;;2.95;;
68792;SDS011;55778;54.346;10.210;2023-07-13T09:02:45;13.60;;;3.33;;
68792;SDS011;55778;54.346;10.210;2023-07-13T09:05:18;10.65;;;2.80;;
68792;SDS011;55778;54.346;10.210;2023-07-13T09:10:30;5.65;;;1.80;;
68792;SDS011;55778;54.346;10.210;2023-07-13T09:16:06;7.22;;;2.00;;
68792;SDS011;55778;54.346;10.210;2023-07-13T09:18:36;8.68;;;2.30;;
68792;SDS011;55778;54.346;10.210;2023-07-13T09:23:39;7.75;;;2.50;;
68792;SDS011;55778;54.346;10.210;2023-07-13T09:26:11;10.45;;;2.83;;
68792;SDS011;55778;54.346;10.210;2023-07-13T09:28:42;9.30;;;3.30;;
68792;SDS011;55778;54.346;10.210;2023-07-13T09:31:11;8.57;;;3.65;;
68792;SDS011;55778;54.346;10.210;2023-07-13T09:33:40;6.85;;;3.67;;
68792;SDS011;55778;54.346;10.210;2023-07-13T09:36:17;8.43;;;3.35;;
68792;SDS011;55778;54.346;10.210;2023-07-13T09:38:46;7.90;;;3.50;;
68792;SDS011;55778;54.346;10.210;2023-07-13T09:41:17;7.20;;;3.67;;
68792;SDS011;55778;54.346;10.210;2023-07-13T09:46:27;9.35;;;3.80;;
68792;SDS011;55778;54.346;10.210;2023-07-13T09:48:52;6.63;;;3.75;;
68792;SDS011;55778;54.346;10.210;2023-07-13T09:51:18;7.97;;;4.00;;
68792;SDS011;55778;54.346;10.210;2023-07-13T09:53:43;7.07;;;3.50;;
68792;SDS011;55778;54.346;10.210;2023-07-13T09:56:22;6.43;;;3.60;;
68792;SDS011;55778;54.346;10.210;2023-07-13T09:58:49;6.70;;;3.15;;
68792;SDS011;55778;54.346;10.210;2023-07-13T10:01:15;7.72;;;3.15;;
68792;SDS011;55778;54.346;10.210;2023-07-13T10:03:51;5.53;;;2.72;;
68792;SDS011;55778;54.346;10.210;2023-07-13T10:06:19;5.50;;;2.58;;
68792;SDS011;55778;54.346;10.210;2023-07-13T10:08:47;5.70;;;3.17;;
68792;SDS011;55778;54.346;10.210;2023-07-13T10:11:26;8.27;;;2.60;;
68792;SDS011;55778;54.346;10.210;2023-07-13T10:14:01;5.75;;;2.80;;
68792;SDS011;55778;54.346;10.210;2023-07-13T10:16:33;6.35;;;2.45;;
68792;SDS011;55778;54.346;10.210;2023-07-13T10:19:21;8.20;;;2.60;;
68792;SDS011;55778;54.346;10.210;2023-07-13T10:24:17;6.40;;;2.63;;
68792;SDS011;55778;54.346;10.210;2023-07-13T10:26:48;6.43;;;3.40;;
68792;SDS011;55778;54.346;10.210;2023-07-13T10:29:18;8.75;;;3.63;;
68792;SDS011;55778;54.346;10.210;2023-07-13T10:31:47;7.75;;;3.92;;
68792;SDS011;55778;54.346;10.210;2023-07-13T10:34:13;11.05;;;4.70;;
68792;SDS011;55778;54.346;10.210;2023-07-13T10:36:40;11.15;;;3.88;;
68792;SDS011;55778;54.346;10.210;2023-07-13T10:39:10;7.22;;;3.60;;
68792;SDS011;55778;54.346;10.210;2023-07-13T10:41:41;10.02;;;3.92;;
68792;SDS011;55778;54.346;10.210;2023-07-13T10:44:23;4.40;;;2.00;;
68792;SDS011;55778;54.346;10.210;2023-07-13T10:46:52;3.42;;;1.60;;
68792;SDS011;55778;54.346;10.210;2023-07-13T10:49:21;3.00;;;1.25;;
68792;SDS011;55778;54.346;10.210;2023-07-13T10:51:47;5.05;;;1.30;;
68792;SDS011;55778;54.346;10.210;2023-07-13T10:54:46;3.15;;;1.20;;
68792;SDS011;55778;54.346;10.210;2023-07-13T10:57:15;2.38;;;0.90;;
68792;SDS011;55778;54.346;10.210;2023-07-13T10:59:47;2.93;;;1.10;;
68792;SDS011;55778;54.346;10.210;2023-07-13T11:05:01;3.25;;;0.95;;
68792;SDS011;55778;54.346;10.210;2023-07-13T11:07:52;3.05;;;1.10;;
68792;SDS011;55778;54.346;10.210;2023-07-13T11:18:45;1.60;;;0.80;;
68792;SDS011;55778;54.346;10.210;2023-07-13T11:23:45;3.22;;;0.80;;
68792;SDS011;55778;54.346;10.210;2023-07-13T11:26:42;2.47;;;0.82;;
68792;SDS011;55778;54.346;10.210;2023-07-13T11:31:43;2.50;;;0.90;;
68792;SDS011;55778;54.346;10.210;2023-07-13T11:34:18;4.53;;;1.10;;
68792;SDS011;55778;54.346;10.210;2023-07-13T11:36:53;3.17;;;0.93;;
68792;SDS011;55778;54.346;10.210;2023-07-13T11:39:23;3.22;;;0.90;;
68792;SDS011;55778;54.346;10.210;2023-07-13T11:41:56;3.05;;;1.00;;
68792;SDS011;55778;54.346;10.210;2023-07-13T11:44:25;3.03;;;1.10;;
68792;SDS011;55778;54.346;10.210;2023-07-13T11:46:55;4.78;;;1.00;;
68792;SDS011;55778;54.346;10.210;2023-07-13T11:49:29;3.17;;;0.90;;
68792;SDS011;55778;54.346;10.210;2023-07-13T11:51:56;3.33;;;1.00;;
68792;SDS011;55778;54.346;10.210;2023-07-13T11:54:27;5.25;;;1.40;;
68792;SDS011;55778;54.346;10.210;2023-07-13T11:57:06;4.05;;;1.08;;
68792;SDS011;55778;54.346;10.210;2023-07-13T11:59:46;4.15;;;1.27;;
68792;SDS011;55778;54.346;10.210;2023-07-13T12:02:16;4.93;;;1.10;;
68792;SDS011;55778;54.346;10.210;2023-07-13T12:05:03;3.60;;;0.93;;
68792;SDS011;55778;54.346;10.210;2023-07-13T12:07:33;2.70;;;0.90;;
68792;SDS011;55778;54.346;10.210;2023-07-13T12:12:29;5.07;;;1.08;;
68792;SDS011;55778;54.346;10.210;2023-07-13T12:14:55;2.20;;;0.80;;
68792;SDS011;55778;54.346;10.210;2023-07-13T12:17:21;5.63;;;1.00;;
68792;SDS011;55778;54.346;10.210;2023-07-13T12:19:48;3.05;;;0.82;;
68792;SDS011;55778;54.346;10.210;2023-07-13T12:22:16;1.95;;;0.63;;
68792;SDS011;55778;54.346;10.210;2023-07-13T12:24:43;2.60;;;0.80;;
68792;SDS011;55778;54.346;10.210;2023-07-13T12:29:49;2.58;;;0.70;;
68792;SDS011;55778;54.346;10.210;2023-07-13T12:32:18;3.70;;;0.80;;
68792;SDS011;55778;54.346;10.210;2023-07-13T12:34:52;1.15;;;0.60;;
68792;SDS011;55778;54.346;10.210;2023-07-13T12:37:19;3.20;;;0.80;;
68792;SDS011;55778;54.346;10.210;2023-07-13T12:39:46;3.15;;;0.60;;
68792;SDS011;55778;54.346;10.210;2023-07-13T12:44:54;2.08;;;0.80;;
68792;SDS011;55778;54.346;10.210;2023-07-13T12:47:23;2.17;;;0.80;;
68792;SDS011;55778;54.346;10.210;2023-07-13T12:49:59;2.55;;;0.90;;
68792;SDS011;55778;54.346;10.210;2023-07-13T12:52:30;3.45;;;0.90;;
68792;SDS011;55778;54.346;10.210;2023-07-13T12:55:14;3.08;;;0.90;;
68792;SDS011;55778;54.346;10.210;2023-07-13T12:57:57;3.88;;;0.90;;
68792;SDS011;55778;54.346;10.210;2023-07-13T13:02:55;3.47;;;0.98;;
68792;SDS011;55778;54.346;10.210;2023-07-13T13:05:22;3.85;;;0.93;;
68792;SDS011;55778;54.346;10.210;2023-07-13T13:07:51;3.03;;;1.27;;
68792;SDS011;55778;54.346;10.210;2023-07-13T13:10:16;5.60;;;0.85;;
68792;SDS011;55778;54.346;10.210;2023-07-13T13:12:42;3.28;;;1.02;;
68792;SDS011;55778;54.346;10.210;2023-07-13T13:15:08;2.42;;;0.70;;
68792;SDS011;55778;54.346;10.210;2023-07-13T13:17:34;4.30;;;0.85;;
68792;SDS011;55778;54.346;10.210;2023-07-13T13:20:00;2.42;;;0.77;;
68792;SDS011;55778;54.346;10.210;2023-07-13T13:22:25;3.13;;;1.05;;
68792;SDS011;55778;54.346;10.210;2023-07-13T13:24:51;3.28;;;0.90;;
68792;SDS011;55778;54.346;10.210;2023-07-13T13:27:16;3.15;;;0.90;;
68792;SDS011;55778;54.346;10.210;2023-07-13T13:29:44;2.80;;;0.88;;
68792;SDS011;55778;54.346;10.210;2023-07-13T13:32:13;2.58;;;0.90;;
68792;SDS011;55778;54.346;10.210;2023-07-13T13:34:40;4.47;;;1.27;;
68792;SDS011;55778;54.346;10.210;2023-07-13T13:37:16;2.83;;;0.75;;
68792;SDS011;55778;54.346;10.210;2023-07-13T13:39:44;2.47;;;0.80;;
68792;SDS011;55778;54.346;10.210;2023-07-13T13:42:10;4.20;;;1.15;;
68792;SDS011;55778;54.346;10.210;2023-07-13T13:44:36;5.25;;;1.23;;
68792;SDS011;55778;54.346;10.210;2023-07-13T13:47:02;2.80;;;0.95;;
68792;SDS011;55778;54.346;10.210;2023-07-13T13:49:28;4.13;;;0.90;;
68792;SDS011;55778;54.346;10.210;2023-07-13T13:51:55;3.70;;;0.90;;
68792;SDS011;55778;54.346;10.210;2023-07-13T13:54:22;2.90;;;0.88;;
68792;SDS011;55778;54.346;10.210;2023-07-13T13:56:49;3.13;;;1.10;;
68792;SDS011;55778;54.346;10.210;2023-07-13T13:59:16;2.17;;;1.00;;
68792;SDS011;55778;54.346;10.210;2023-07-13T14:01:42;2.50;;;1.00;;
68792;SDS011;55778;54.346;10.210;2023-07-13T14:04:20;3.57;;;0.90;;
68792;SDS011;55778;54.346;10.210;2023-07-13T14:06:47;3.00;;;0.80;;
68792;SDS011;55778;54.346;10.210;2023-07-13T14:09:13;3.60;;;1.10;;
68792;SDS011;55778;54.346;10.210;2023-07-13T14:11:40;3.78;;;0.90;;
68792;SDS011;55778;54.346;10.210;2023-07-13T14:16:45;3.58;;;1.15;;
68792;SDS011;55778;54.346;10.210;2023-07-13T14:19:11;2.80;;;0.60;;
68792;SDS011;55778;54.346;10.210;2023-07-13T14:21:39;2.50;;;1.00;;
68792;SDS011;55778;54.346;10.210;2023-07-13T14:24:04;1.85;;;0.75;;
68792;SDS011;55778;54.346;10.210;2023-07-13T14:26:31;2.45;;;0.88;;
68792;SDS011;55778;54.346;10.210;2023-07-13T14:29:01;3.67;;;1.00;;
68792;SDS011;55778;54.346;10.210;2023-07-13T14:31:27;2.30;;;0.90;;
68792;SDS011;55778;54.346;10.210;2023-07-13T14:33:55;3.47;;;0.82;;
68792;SDS011;55778;54.346;10.210;2023-07-13T14:36:28;2.42;;;1.20;;
68792;SDS011;55778;54.346;10.210;2023-07-13T14:39:00;3.42;;;1.20;;
68792;SDS011;55778;54.346;10.210;2023-07-13T14:41:34;5.15;;;1.20;;
68792;SDS011;55778;54.346;10.210;2023-07-13T14:43:59;4.18;;;0.98;;
68792;SDS011;55778;54.346;10.210;2023-07-13T14:46:29;2.92;;;0.90;;
68792;SDS011;55778;54.346;10.210;2023-07-13T14:49:07;6.60;;;1.30;;
68792;SDS011;55778;54.346;10.210;2023-07-13T14:51:37;3.95;;;1.27;;
68792;SDS011;55778;54.346;10.210;2023-07-13T14:54:03;4.60;;;1.40;;
68792;SDS011;55778;54.346;10.210;2023-07-13T14:56:30;2.50;;;0.95;;
68792;SDS011;55778;54.346;10.210;2023-07-13T14:58:55;4.00;;;1.10;;
68792;SDS011;55778;54.346;10.210;2023-07-13T15:01:21;4.72;;;1.00;;
68792;SDS011;55778;54.346;10.210;2023-07-13T15:03:48;4.35;;;1.10;;
68792;SDS011;55778;54.346;10.210;2023-07-13T15:06:16;3.22;;;0.90;;
68792;SDS011;55778;54.346;10.210;2023-07-13T15:08:42;5.10;;;1.00;;
68792;SDS011;55778;54.346;10.210;2023-07-13T15:11:08;3.28;;;1.10;;
68792;SDS011;55778;54.346;10.210;2023-07-13T15:16:02;4.95;;;1.10;;
68792;SDS011;55778;54.346;10.210;2023-07-13T15:18:28;5.35;;;1.60;;
68792;SDS011;55778;54.346;10.210;2023-07-13T15:20:53;3.42;;;0.90;;
68792;SDS011;55778;54.346;10.210;2023-07-13T15:23:21;5.85;;;1.42;;
68792;SDS011;55778;54.346;10.210;2023-07-13T15:25:47;5.00;;;1.30;;
68792;SDS011;55778;54.346;10.210;2023-07-13T15:28:13;3.80;;;1.02;;
68792;SDS011;55778;54.346;10.210;2023-07-13T15:30:43;2.58;;;1.13;;
68792;SDS011;55778;54.346;10.210;2023-07-13T15:33:12;4.43;;;1.08;;